Qm Of London — ZCTD7 — position and weather

sailwx.info

Track history (hours):
 
Tides and Currents Weather Stations Pressure Air Temp Water Temp Dewpoint Dewpoint Depression Visibility Wind Speed Wind Dir Waves Ship Positions

Qm Of London

Last reported at 2015-Sep-03 00:29 UTC. Time now 2015-Sep-03 21:27 UTC.
Position N 40°33' E 014°15'.

Length 50 m; draft 2.7 m.

Type: Pleasure craft. MMSI: 319780000.

Date/timePositionNaut miles runAvg speedWind from/ knotsBaromVisibWave heightAir tempDewpointWater temp
2015-Sep-03 00:29N 40°33' E 014°15'0 0.0
2015-Sep-02 23:27N 40°33' E 014°15'0 0.0
2015-Sep-02 22:04N 40°33' E 014°15'0 0.0
2015-Sep-02 21:31N 40°33' E 014°15'0 0.0
2015-Sep-02 20:32N 40°33' E 014°15'0 0.0
2015-Sep-02 18:06N 40°33' E 014°15'0 0.0
2015-Sep-02 17:25N 40°33' E 014°15'0 0.0
2015-Sep-02 16:31N 40°33' E 014°15'0 0.0
2015-Sep-02 15:32N 40°33' E 014°15'0 0.0
2015-Sep-02 14:30N 40°33' E 014°15'0 0.0
2015-Sep-02 13:27N 40°33' E 014°15'0 0.0
2015-Sep-02 12:28N 40°33' E 014°15'0 0.0
2015-Sep-02 11:32N 40°33' E 014°15'26 0.6
2015-Aug-31 18:07N 40°09' E 014°30'10615.2
2015-Aug-31 11:07N 38°34' E 015°31'914.9
2015-Aug-31 10:29N 38°25' E 015°37'1111.4
2015-Aug-31 09:33N 38°15' E 015°38'1414.3
2015-Aug-31 08:33N 38°02' E 015°30'15 1.2
2015-Aug-30 20:09N 37°50' E 015°18'6 9.5
2015-Aug-30 19:32N 37°50' E 015°25'1212.4
2015-Aug-30 18:33N 37°51' E 015°40'  
2015-Aug-25 16:18N 37°54' E 023°03'1312.6
2015-Aug-25 15:17N 37°52' E 023°20'912.5
2015-Aug-25 14:33N 37°52' E 023°31'8 7.8
2015-Aug-25 13:31N 37°56' E 023°40'0 0.0
2015-Aug-25 12:31N 37°56' E 023°40'0 0.0
2015-Aug-25 11:32N 37°56' E 023°40'0 0.0
2015-Aug-25 10:33N 37°56' E 023°40'0 0.0
2015-Aug-25 09:33N 37°56' E 023°40'0 0.0
2015-Aug-25 08:31N 37°56' E 023°40'0 0.1
2015-Aug-25 07:33N 37°56' E 023°40'1110.8
2015-Aug-25 06:33N 37°45' E 023°43'5011.6
2015-Aug-25 02:16N 37°33' E 024°44'912.3
2015-Aug-25 01:32N 37°33' E 024°55'1212.6
2015-Aug-25 00:33N 37°29' E 025°10'9 9.3
2015-Aug-24 23:33N 37°25' E 025°21'0 0.0
2015-Aug-24 22:30N 37°25' E 025°21'0 0.0
2015-Aug-24 21:31N 37°25' E 025°21'0 0.0
2015-Aug-24 20:32N 37°25' E 025°21'0 0.0
2015-Aug-24 19:32N 37°25' E 025°21'0 0.0
2015-Aug-24 18:33N 37°25' E 025°21'0 0.0
2015-Aug-24 17:33N 37°25' E 025°21'0 0.0
2015-Aug-24 16:31N 37°25' E 025°21'0 0.0
2015-Aug-24 15:32N 37°25' E 025°21'0 0.0
2015-Aug-24 14:33N 37°25' E 025°21'0 0.0
2015-Aug-24 13:33N 37°25' E 025°21'0 0.0
2015-Aug-24 12:31N 37°25' E 025°21'0 0.0
2015-Aug-24 11:32N 37°25' E 025°21'0 0.0
2015-Aug-24 10:29N 37°25' E 025°21'0 0.0
2015-Aug-24 09:33N 37°25' E 025°21'0 0.0
2015-Aug-24 08:34N 37°25' E 025°21'0 0.0
2015-Aug-24 07:31N 37°25' E 025°21'0 0.0
2015-Aug-24 06:32N 37°25' E 025°21'0 0.0
2015-Aug-24 05:30N 37°25' E 025°21'0 0.0
2015-Aug-24 04:33N 37°25' E 025°21'0 0.0
2015-Aug-24 03:31N 37°25' E 025°21'0 0.0
2015-Aug-24 02:32N 37°25' E 025°21'0 0.0
2015-Aug-24 01:32N 37°25' E 025°21'0 0.0
2015-Aug-24 00:33N 37°25' E 025°21'  
Track history (hours):
 
Tides and Currents Weather Stations Pressure Air Temp Water Temp Dewpoint Dewpoint Depression Visibility Wind Speed Wind Dir Waves Ship Positions

Qm Of London

Last reported at 2015-Sep-03 00:29 UTC. Time now 2015-Sep-03 21:27 UTC.
Position N 40°33' E 014°15'.

Length 50 m; draft 2.7 m.

Type: Pleasure craft. MMSI: 319780000.

Date/timePositionNaut miles runAvg speedWind from/ knotsBaromVisibWave heightAir tempDewpointWater temp
2015-Sep-03 00:29N 40°33' E 014°15'0 0.0
2015-Sep-02 23:27N 40°33' E 014°15'0 0.0
2015-Sep-02 22:04N 40°33' E 014°15'0 0.0
2015-Sep-02 21:31N 40°33' E 014°15'0 0.0
2015-Sep-02 20:32N 40°33' E 014°15'0 0.0
2015-Sep-02 18:06N 40°33' E 014°15'0 0.0
2015-Sep-02 17:25N 40°33' E 014°15'0 0.0
2015-Sep-02 16:31N 40°33' E 014°15'0 0.0
2015-Sep-02 15:32N 40°33' E 014°15'0 0.0
2015-Sep-02 14:30N 40°33' E 014°15'0 0.0
2015-Sep-02 13:27N 40°33' E 014°15'0 0.0
2015-Sep-02 12:28N 40°33' E 014°15'0 0.0
2015-Sep-02 11:32N 40°33' E 014°15'26 0.6
2015-Aug-31 18:07N 40°09' E 014°30'10615.2
2015-Aug-31 11:07N 38°34' E 015°31'914.9
2015-Aug-31 10:29N 38°25' E 015°37'1111.4
2015-Aug-31 09:33N 38°15' E 015°38'1414.3
2015-Aug-31 08:33N 38°02' E 015°30'15 1.2
2015-Aug-30 20:09N 37°50' E 015°18'6 9.5
2015-Aug-30 19:32N 37°50' E 015°25'1212.4
2015-Aug-30 18:33N 37°51' E 015°40'  
2015-Aug-25 16:18N 37°54' E 023°03'1312.6
2015-Aug-25 15:17N 37°52' E 023°20'912.5
2015-Aug-25 14:33N 37°52' E 023°31'8 7.8
2015-Aug-25 13:31N 37°56' E 023°40'0 0.0
2015-Aug-25 12:31N 37°56' E 023°40'0 0.0
2015-Aug-25 11:32N 37°56' E 023°40'0 0.0
2015-Aug-25 10:33N 37°56' E 023°40'0 0.0
2015-Aug-25 09:33N 37°56' E 023°40'0 0.0
2015-Aug-25 08:31N 37°56' E 023°40'0 0.1
2015-Aug-25 07:33N 37°56' E 023°40'1110.8
2015-Aug-25 06:33N 37°45' E 023°43'5011.6
2015-Aug-25 02:16N 37°33' E 024°44'912.3
2015-Aug-25 01:32N 37°33' E 024°55'1212.6
2015-Aug-25 00:33N 37°29' E 025°10'9 9.3
2015-Aug-24 23:33N 37°25' E 025°21'0 0.0
2015-Aug-24 22:30N 37°25' E 025°21'0 0.0
2015-Aug-24 21:31N 37°25' E 025°21'0 0.0
2015-Aug-24 20:32N 37°25' E 025°21'0 0.0
2015-Aug-24 19:32N 37°25' E 025°21'0 0.0
2015-Aug-24 18:33N 37°25' E 025°21'0 0.0
2015-Aug-24 17:33N 37°25' E 025°21'0 0.0
2015-Aug-24 16:31N 37°25' E 025°21'0 0.0
2015-Aug-24 15:32N 37°25' E 025°21'0 0.0
2015-Aug-24 14:33N 37°25' E 025°21'0 0.0
2015-Aug-24 13:33N 37°25' E 025°21'0 0.0
2015-Aug-24 12:31N 37°25' E 025°21'0 0.0
2015-Aug-24 11:32N 37°25' E 025°21'0 0.0
2015-Aug-24 10:29N 37°25' E 025°21'0 0.0
2015-Aug-24 09:33N 37°25' E 025°21'0 0.0
2015-Aug-24 08:34N 37°25' E 025°21'0 0.0
2015-Aug-24 07:31N 37°25' E 025°21'0 0.0
2015-Aug-24 06:32N 37°25' E 025°21'0 0.0
2015-Aug-24 05:30N 37°25' E 025°21'0 0.0
2015-Aug-24 04:33N 37°25' E 025°21'0 0.0
2015-Aug-24 03:31N 37°25' E 025°21'0 0.0
2015-Aug-24 02:32N 37°25' E 025°21'0 0.0
2015-Aug-24 01:32N 37°25' E 025°21'0 0.0
2015-Aug-24 00:33N 37°25' E 025°21'  

Dump ship's entire track history